Kezdőlap
METAR-TAF:

METAR-TAF

Repülőterek :

Mersing, Malajzia

földrajzi szélesség: 02-23-00N, földrajzi hosszúság: 103-51-34E, magasság: 3 m

Jelenlegi meteorológiai megfigyelések

A jelentés 57 perccel ezelõtt készült, 11:00 UTC
Különbözõ irányokból fújó szél 4 kt
Hőmérséklet 26°C
Páratartalom 89%
Légköri nyomás 1007 hPa
Látótávolság 10 km, vagy több
Kevés felhő 2500 lábon

METAR: WMAU 221100Z VRB04KT 9999 FEW025 26/24 Q1007

Idő: 19:57 (11:57 UTC)


TAF: hiányzik

Meteorológiai megfigyelések és előrejelzések több, mint 4000 repülőtéren (METAR és TAF jelentéseket).

A térképen piros és sárga pontok jelzik az elérhető meteorológiai állomásokat.

Mozgassa az egeret a pont fölött, hogy megjelenjen az állomás neve.

Azután kattintson az időjárási megfigyelések és előrejelzések megtekintéséhez.

A térkép megváltoztatása: kattintson a fekete keresztel jelölt zöld gombra ráközelítéshez, a vonallal jelölt zöld gombra távolításhoz, vagy a zöld nyilakra a szomszédos térképek eléréséhez.


METAR-TAF: